sensor_id;sensor_type;location;lat;lon;timestamp;P1;durP1;ratioP1;P2;durP2;ratioP2
67882;SDS011;54681;52.486;-1.890;2023-01-09T00:02:02;4.47;;;2.10;;
67882;SDS011;54681;52.486;-1.890;2023-01-09T00:04:28;6.20;;;2.00;;
67882;SDS011;54681;52.486;-1.890;2023-01-09T00:06:54;5.78;;;2.10;;
67882;SDS011;54681;52.486;-1.890;2023-01-09T00:09:20;8.23;;;2.30;;
67882;SDS011;54681;52.486;-1.890;2023-01-09T00:11:47;7.55;;;2.30;;
67882;SDS011;54681;52.486;-1.890;2023-01-09T00:14:14;6.32;;;2.10;;
67882;SDS011;54681;52.486;-1.890;2023-01-09T00:16:41;6.05;;;2.30;;
67882;SDS011;54681;52.486;-1.890;2023-01-09T00:19:06;5.93;;;1.92;;
67882;SDS011;54681;52.486;-1.890;2023-01-09T00:21:32;7.40;;;1.98;;
67882;SDS011;54681;52.486;-1.890;2023-01-09T00:23:57;5.97;;;2.00;;
67882;SDS011;54681;52.486;-1.890;2023-01-09T00:26:22;7.32;;;2.00;;
67882;SDS011;54681;52.486;-1.890;2023-01-09T00:28:49;5.03;;;1.80;;
67882;SDS011;54681;52.486;-1.890;2023-01-09T00:31:15;4.95;;;1.80;;
67882;SDS011;54681;52.486;-1.890;2023-01-09T00:33:43;5.03;;;1.92;;
67882;SDS011;54681;52.486;-1.890;2023-01-09T00:36:12;5.38;;;1.98;;
67882;SDS011;54681;52.486;-1.890;2023-01-09T00:38:38;6.53;;;2.10;;
67882;SDS011;54681;52.486;-1.890;2023-01-09T00:41:05;6.05;;;2.00;;
67882;SDS011;54681;52.486;-1.890;2023-01-09T00:43:34;4.63;;;1.90;;
67882;SDS011;54681;52.486;-1.890;2023-01-09T00:46:04;6.55;;;1.88;;
67882;SDS011;54681;52.486;-1.890;2023-01-09T00:48:31;6.20;;;2.10;;
67882;SDS011;54681;52.486;-1.890;2023-01-09T00:50:59;5.47;;;1.92;;
67882;SDS011;54681;52.486;-1.890;2023-01-09T00:53:25;6.13;;;1.80;;
67882;SDS011;54681;52.486;-1.890;2023-01-09T00:55:54;6.75;;;2.22;;
67882;SDS011;54681;52.486;-1.890;2023-01-09T00:58:25;4.55;;;1.80;;
67882;SDS011;54681;52.486;-1.890;2023-01-09T01:00:50;3.95;;;1.80;;
67882;SDS011;54681;52.486;-1.890;2023-01-09T01:03:16;5.55;;;2.08;;
67882;SDS011;54681;52.486;-1.890;2023-01-09T01:05:41;5.18;;;1.90;;
67882;SDS011;54681;52.486;-1.890;2023-01-09T01:08:19;4.75;;;1.80;;
67882;SDS011;54681;52.486;-1.890;2023-01-09T01:10:46;4.10;;;1.85;;
67882;SDS011;54681;52.486;-1.890;2023-01-09T01:13:12;6.10;;;1.73;;
67882;SDS011;54681;52.486;-1.890;2023-01-09T01:15:38;4.18;;;1.88;;
67882;SDS011;54681;52.486;-1.890;2023-01-09T01:18:05;5.57;;;1.98;;
67882;SDS011;54681;52.486;-1.890;2023-01-09T01:20:30;3.08;;;1.70;;
67882;SDS011;54681;52.486;-1.890;2023-01-09T01:22:56;6.25;;;2.03;;
67882;SDS011;54681;52.486;-1.890;2023-01-09T01:25:22;6.13;;;2.10;;
67882;SDS011;54681;52.486;-1.890;2023-01-09T01:27:47;5.18;;;1.90;;
67882;SDS011;54681;52.486;-1.890;2023-01-09T01:30:14;5.00;;;1.73;;
67882;SDS011;54681;52.486;-1.890;2023-01-09T01:32:41;5.55;;;1.90;;
67882;SDS011;54681;52.486;-1.890;2023-01-09T01:35:06;5.22;;;1.85;;
67882;SDS011;54681;52.486;-1.890;2023-01-09T01:37:33;5.80;;;1.90;;
67882;SDS011;54681;52.486;-1.890;2023-01-09T01:39:59;5.82;;;2.03;;
67882;SDS011;54681;52.486;-1.890;2023-01-09T01:42:25;4.68;;;1.77;;
67882;SDS011;54681;52.486;-1.890;2023-01-09T01:47:40;4.57;;;1.83;;
67882;SDS011;54681;52.486;-1.890;2023-01-09T01:53:08;5.03;;;1.80;;
67882;SDS011;54681;52.486;-1.890;2023-01-09T01:55:54;6.97;;;1.80;;
67882;SDS011;54681;52.486;-1.890;2023-01-09T01:58:41;6.43;;;1.80;;
67882;SDS011;54681;52.486;-1.890;2023-01-09T02:01:12;4.97;;;1.70;;
67882;SDS011;54681;52.486;-1.890;2023-01-09T02:03:39;4.45;;;1.73;;
67882;SDS011;54681;52.486;-1.890;2023-01-09T02:06:06;4.28;;;1.88;;
67882;SDS011;54681;52.486;-1.890;2023-01-09T02:08:32;5.45;;;1.80;;
67882;SDS011;54681;52.486;-1.890;2023-01-09T02:10:58;3.83;;;1.80;;
67882;SDS011;54681;52.486;-1.890;2023-01-09T02:13:24;6.07;;;2.13;;
67882;SDS011;54681;52.486;-1.890;2023-01-09T02:18:53;3.95;;;1.55;;
67882;SDS011;54681;52.486;-1.890;2023-01-09T02:27:50;5.63;;;1.88;;
67882;SDS011;54681;52.486;-1.890;2023-01-09T02:36:33;4.03;;;1.67;;
67882;SDS011;54681;52.486;-1.890;2023-01-09T02:39:28;5.55;;;1.70;;
67882;SDS011;54681;52.486;-1.890;2023-01-09T02:42:04;4.28;;;1.60;;
67882;SDS011;54681;52.486;-1.890;2023-01-09T02:44:48;3.13;;;1.60;;
67882;SDS011;54681;52.486;-1.890;2023-01-09T02:50:02;4.05;;;1.60;;
67882;SDS011;54681;52.486;-1.890;2023-01-09T02:55:10;6.83;;;2.00;;
67882;SDS011;54681;52.486;-1.890;2023-01-09T02:57:54;5.78;;;1.90;;
67882;SDS011;54681;52.486;-1.890;2023-01-09T03:00:34;5.93;;;1.88;;
67882;SDS011;54681;52.486;-1.890;2023-01-09T03:03:32;3.72;;;2.10;;
67882;SDS011;54681;52.486;-1.890;2023-01-09T03:06:11;2.92;;;1.50;;
67882;SDS011;54681;52.486;-1.890;2023-01-09T03:08:46;4.28;;;1.80;;
67882;SDS011;54681;52.486;-1.890;2023-01-09T03:11:15;3.28;;;1.60;;
67882;SDS011;54681;52.486;-1.890;2023-01-09T03:13:44;4.32;;;1.70;;
67882;SDS011;54681;52.486;-1.890;2023-01-09T03:16:20;3.70;;;1.70;;
67882;SDS011;54681;52.486;-1.890;2023-01-09T03:18:49;4.40;;;1.63;;
67882;SDS011;54681;52.486;-1.890;2023-01-09T03:21:16;5.35;;;1.80;;
67882;SDS011;54681;52.486;-1.890;2023-01-09T03:23:46;2.75;;;1.60;;
67882;SDS011;54681;52.486;-1.890;2023-01-09T03:26:14;5.85;;;1.83;;
67882;SDS011;54681;52.486;-1.890;2023-01-09T03:28:40;4.53;;;1.70;;
67882;SDS011;54681;52.486;-1.890;2023-01-09T03:31:06;4.45;;;1.52;;
67882;SDS011;54681;52.486;-1.890;2023-01-09T03:33:32;6.72;;;1.90;;
67882;SDS011;54681;52.486;-1.890;2023-01-09T03:35:57;4.40;;;1.70;;
67882;SDS011;54681;52.486;-1.890;2023-01-09T03:38:22;4.95;;;1.55;;
67882;SDS011;54681;52.486;-1.890;2023-01-09T03:40:48;4.80;;;1.67;;
67882;SDS011;54681;52.486;-1.890;2023-01-09T03:43:13;3.75;;;1.52;;
67882;SDS011;54681;52.486;-1.890;2023-01-09T03:45:39;5.07;;;1.67;;
67882;SDS011;54681;52.486;-1.890;2023-01-09T03:48:04;4.50;;;1.67;;
67882;SDS011;54681;52.486;-1.890;2023-01-09T03:50:30;4.97;;;1.63;;
67882;SDS011;54681;52.486;-1.890;2023-01-09T03:52:55;3.30;;;1.58;;
67882;SDS011;54681;52.486;-1.890;2023-01-09T03:55:21;3.75;;;1.63;;
67882;SDS011;54681;52.486;-1.890;2023-01-09T03:57:46;4.57;;;1.67;;
67882;SDS011;54681;52.486;-1.890;2023-01-09T04:00:12;4.75;;;1.65;;
67882;SDS011;54681;52.486;-1.890;2023-01-09T04:02:38;4.05;;;1.52;;
67882;SDS011;54681;52.486;-1.890;2023-01-09T04:05:03;4.38;;;1.48;;
67882;SDS011;54681;52.486;-1.890;2023-01-09T04:07:29;3.85;;;1.48;;
67882;SDS011;54681;52.486;-1.890;2023-01-09T04:09:54;5.07;;;1.50;;
67882;SDS011;54681;52.486;-1.890;2023-01-09T04:12:20;4.18;;;1.70;;
67882;SDS011;54681;52.486;-1.890;2023-01-09T04:14:45;5.07;;;1.63;;
67882;SDS011;54681;52.486;-1.890;2023-01-09T04:17:13;5.20;;;1.90;;
67882;SDS011;54681;52.486;-1.890;2023-01-09T04:19:40;3.30;;;1.48;;
67882;SDS011;54681;52.486;-1.890;2023-01-09T04:22:06;3.75;;;1.58;;
67882;SDS011;54681;52.486;-1.890;2023-01-09T04:24:31;4.43;;;1.70;;
67882;SDS011;54681;52.486;-1.890;2023-01-09T04:26:56;5.38;;;1.60;;
67882;SDS011;54681;52.486;-1.890;2023-01-09T04:29:22;3.50;;;1.60;;
67882;SDS011;54681;52.486;-1.890;2023-01-09T04:31:47;4.32;;;1.60;;
67882;SDS011;54681;52.486;-1.890;2023-01-09T04:34:13;3.30;;;1.50;;
67882;SDS011;54681;52.486;-1.890;2023-01-09T04:36:38;4.03;;;1.70;;
67882;SDS011;54681;52.486;-1.890;2023-01-09T04:39:04;3.20;;;1.58;;
67882;SDS011;54681;52.486;-1.890;2023-01-09T04:41:29;3.90;;;1.30;;
67882;SDS011;54681;52.486;-1.890;2023-01-09T04:44:11;3.90;;;1.40;;
67882;SDS011;54681;52.486;-1.890;2023-01-09T04:46:37;4.15;;;1.42;;
67882;SDS011;54681;52.486;-1.890;2023-01-09T04:49:02;4.68;;;1.55;;
67882;SDS011;54681;52.486;-1.890;2023-01-09T04:51:27;2.63;;;1.33;;
67882;SDS011;54681;52.486;-1.890;2023-01-09T04:53:53;3.33;;;1.40;;
67882;SDS011;54681;52.486;-1.890;2023-01-09T04:56:18;3.28;;;1.45;;
67882;SDS011;54681;52.486;-1.890;2023-01-09T04:58:44;3.90;;;1.50;;
67882;SDS011;54681;52.486;-1.890;2023-01-09T05:01:09;4.85;;;1.70;;
67882;SDS011;54681;52.486;-1.890;2023-01-09T05:03:34;4.20;;;1.38;;
67882;SDS011;54681;52.486;-1.890;2023-01-09T05:06:00;4.20;;;1.60;;
67882;SDS011;54681;52.486;-1.890;2023-01-09T05:08:25;4.10;;;1.35;;
67882;SDS011;54681;52.486;-1.890;2023-01-09T05:10:51;3.58;;;1.42;;
67882;SDS011;54681;52.486;-1.890;2023-01-09T05:13:16;3.30;;;1.30;;
67882;SDS011;54681;52.486;-1.890;2023-01-09T05:15:41;3.78;;;1.60;;
67882;SDS011;54681;52.486;-1.890;2023-01-09T05:18:07;2.55;;;1.20;;
67882;SDS011;54681;52.486;-1.890;2023-01-09T05:20:32;4.40;;;1.55;;
67882;SDS011;54681;52.486;-1.890;2023-01-09T05:22:58;5.28;;;1.42;;
67882;SDS011;54681;52.486;-1.890;2023-01-09T05:25:23;4.15;;;1.67;;
67882;SDS011;54681;52.486;-1.890;2023-01-09T05:27:48;4.13;;;1.60;;
67882;SDS011;54681;52.486;-1.890;2023-01-09T05:30:14;4.22;;;1.52;;
67882;SDS011;54681;52.486;-1.890;2023-01-09T05:32:39;5.22;;;1.60;;
67882;SDS011;54681;52.486;-1.890;2023-01-09T05:35:05;4.60;;;1.48;;
67882;SDS011;54681;52.486;-1.890;2023-01-09T05:37:31;5.63;;;1.60;;
67882;SDS011;54681;52.486;-1.890;2023-01-09T05:39:56;3.45;;;1.35;;
67882;SDS011;54681;52.486;-1.890;2023-01-09T05:42:22;3.50;;;1.50;;
67882;SDS011;54681;52.486;-1.890;2023-01-09T05:44:47;5.20;;;1.50;;
67882;SDS011;54681;52.486;-1.890;2023-01-09T05:47:12;3.97;;;1.23;;
67882;SDS011;54681;52.486;-1.890;2023-01-09T05:49:38;3.13;;;1.50;;
67882;SDS011;54681;52.486;-1.890;2023-01-09T05:52:03;3.55;;;1.45;;
67882;SDS011;54681;52.486;-1.890;2023-01-09T05:54:29;3.70;;;1.45;;
67882;SDS011;54681;52.486;-1.890;2023-01-09T05:56:54;4.38;;;1.50;;
67882;SDS011;54681;52.486;-1.890;2023-01-09T05:59:19;5.28;;;1.50;;
67882;SDS011;54681;52.486;-1.890;2023-01-09T06:01:45;3.65;;;1.63;;
67882;SDS011;54681;52.486;-1.890;2023-01-09T06:04:10;3.85;;;1.55;;
67882;SDS011;54681;52.486;-1.890;2023-01-09T06:06:36;5.25;;;1.52;;
67882;SDS011;54681;52.486;-1.890;2023-01-09T06:09:01;4.55;;;1.40;;
67882;SDS011;54681;52.486;-1.890;2023-01-09T06:11:27;4.95;;;1.45;;
67882;SDS011;54681;52.486;-1.890;2023-01-09T06:13:53;3.90;;;1.40;;
67882;SDS011;54681;52.486;-1.890;2023-01-09T06:16:18;6.10;;;1.88;;
67882;SDS011;54681;52.486;-1.890;2023-01-09T06:18:44;4.50;;;1.50;;
67882;SDS011;54681;52.486;-1.890;2023-01-09T06:21:10;6.10;;;1.60;;
67882;SDS011;54681;52.486;-1.890;2023-01-09T06:23:35;6.10;;;1.60;;
67882;SDS011;54681;52.486;-1.890;2023-01-09T06:26:01;6.55;;;1.58;;
67882;SDS011;54681;52.486;-1.890;2023-01-09T06:28:26;5.28;;;1.67;;
67882;SDS011;54681;52.486;-1.890;2023-01-09T06:30:52;4.97;;;1.58;;
67882;SDS011;54681;52.486;-1.890;2023-01-09T06:33:17;4.35;;;1.42;;
67882;SDS011;54681;52.486;-1.890;2023-01-09T06:35:43;4.13;;;1.45;;
67882;SDS011;54681;52.486;-1.890;2023-01-09T06:38:09;5.03;;;1.60;;
67882;SDS011;54681;52.486;-1.890;2023-01-09T06:40:34;3.60;;;1.40;;
67882;SDS011;54681;52.486;-1.890;2023-01-09T06:43:00;5.00;;;1.70;;
67882;SDS011;54681;52.486;-1.890;2023-01-09T06:45:25;5.28;;;1.70;;
67882;SDS011;54681;52.486;-1.890;2023-01-09T06:47:51;4.85;;;1.60;;
67882;SDS011;54681;52.486;-1.890;2023-01-09T06:50:16;4.03;;;1.48;;
67882;SDS011;54681;52.486;-1.890;2023-01-09T06:52:42;6.10;;;1.70;;
67882;SDS011;54681;52.486;-1.890;2023-01-09T06:55:07;4.82;;;1.40;;
67882;SDS011;54681;52.486;-1.890;2023-01-09T06:57:33;6.50;;;1.70;;
67882;SDS011;54681;52.486;-1.890;2023-01-09T06:59:58;3.78;;;1.50;;
67882;SDS011;54681;52.486;-1.890;2023-01-09T07:02:24;4.22;;;1.52;;
67882;SDS011;54681;52.486;-1.890;2023-01-09T07:04:49;5.55;;;1.27;;
67882;SDS011;54681;52.486;-1.890;2023-01-09T07:07:15;4.55;;;1.48;;
67882;SDS011;54681;52.486;-1.890;2023-01-09T07:09:40;3.83;;;1.63;;
67882;SDS011;54681;52.486;-1.890;2023-01-09T07:12:06;4.35;;;1.45;;
67882;SDS011;54681;52.486;-1.890;2023-01-09T07:14:31;3.33;;;1.48;;
67882;SDS011;54681;52.486;-1.890;2023-01-09T07:16:57;3.90;;;1.48;;
67882;SDS011;54681;52.486;-1.890;2023-01-09T07:19:22;4.95;;;1.70;;
67882;SDS011;54681;52.486;-1.890;2023-01-09T07:21:48;5.20;;;1.60;;
67882;SDS011;54681;52.486;-1.890;2023-01-09T07:24:13;4.95;;;1.50;;
67882;SDS011;54681;52.486;-1.890;2023-01-09T07:26:39;4.88;;;1.55;;
67882;SDS011;54681;52.486;-1.890;2023-01-09T07:29:04;4.88;;;1.50;;
67882;SDS011;54681;52.486;-1.890;2023-01-09T07:31:29;4.03;;;1.50;;
67882;SDS011;54681;52.486;-1.890;2023-01-09T07:33:55;4.80;;;1.50;;
67882;SDS011;54681;52.486;-1.890;2023-01-09T07:36:20;2.75;;;1.27;;
67882;SDS011;54681;52.486;-1.890;2023-01-09T07:38:46;5.28;;;1.58;;
67882;SDS011;54681;52.486;-1.890;2023-01-09T07:41:11;2.38;;;1.27;;
67882;SDS011;54681;52.486;-1.890;2023-01-09T07:43:37;4.95;;;1.60;;
67882;SDS011;54681;52.486;-1.890;2023-01-09T07:46:03;3.97;;;1.40;;
67882;SDS011;54681;52.486;-1.890;2023-01-09T07:48:29;3.00;;;1.27;;
67882;SDS011;54681;52.486;-1.890;2023-01-09T07:50:54;4.20;;;1.30;;
67882;SDS011;54681;52.486;-1.890;2023-01-09T07:53:20;4.10;;;1.45;;
67882;SDS011;54681;52.486;-1.890;2023-01-09T07:55:45;3.88;;;1.60;;
67882;SDS011;54681;52.486;-1.890;2023-01-09T07:58:11;2.70;;;1.50;;
67882;SDS011;54681;52.486;-1.890;2023-01-09T08:00:36;3.80;;;1.27;;
67882;SDS011;54681;52.486;-1.890;2023-01-09T08:03:01;5.85;;;1.40;;
67882;SDS011;54681;52.486;-1.890;2023-01-09T08:05:27;4.75;;;1.48;;
67882;SDS011;54681;52.486;-1.890;2023-01-09T08:07:52;3.33;;;1.30;;
67882;SDS011;54681;52.486;-1.890;2023-01-09T08:10:18;3.85;;;1.58;;
67882;SDS011;54681;52.486;-1.890;2023-01-09T08:12:44;3.63;;;1.30;;
67882;SDS011;54681;52.486;-1.890;2023-01-09T08:15:10;3.38;;;1.40;;
67882;SDS011;54681;52.486;-1.890;2023-01-09T08:17:38;3.03;;;1.17;;
67882;SDS011;54681;52.486;-1.890;2023-01-09T08:20:05;3.90;;;1.30;;
67882;SDS011;54681;52.486;-1.890;2023-01-09T08:22:30;4.00;;;1.40;;
67882;SDS011;54681;52.486;-1.890;2023-01-09T08:24:56;2.13;;;1.30;;
67882;SDS011;54681;52.486;-1.890;2023-01-09T08:27:21;3.70;;;1.10;;
67882;SDS011;54681;52.486;-1.890;2023-01-09T08:29:46;3.45;;;1.33;;
67882;SDS011;54681;52.486;-1.890;2023-01-09T08:32:12;2.55;;;1.40;;
67882;SDS011;54681;52.486;-1.890;2023-01-09T08:34:37;2.88;;;1.30;;
67882;SDS011;54681;52.486;-1.890;2023-01-09T08:37:03;3.53;;;1.23;;
67882;SDS011;54681;52.486;-1.890;2023-01-09T08:39:30;3.13;;;1.38;;
67882;SDS011;54681;52.486;-1.890;2023-01-09T08:41:56;3.55;;;1.25;;
67882;SDS011;54681;52.486;-1.890;2023-01-09T08:44:33;2.75;;;1.13;;
67882;SDS011;54681;52.486;-1.890;2023-01-09T08:47:14;3.45;;;1.30;;
67882;SDS011;54681;52.486;-1.890;2023-01-09T08:49:42;3.78;;;1.33;;
67882;SDS011;54681;52.486;-1.890;2023-01-09T08:52:07;3.78;;;1.30;;
67882;SDS011;54681;52.486;-1.890;2023-01-09T08:54:33;3.30;;;1.30;;
67882;SDS011;54681;52.486;-1.890;2023-01-09T08:57:02;3.78;;;1.30;;
67882;SDS011;54681;52.486;-1.890;2023-01-09T08:59:28;1.95;;;1.30;;
67882;SDS011;54681;52.486;-1.890;2023-01-09T09:01:53;2.50;;;1.50;;
67882;SDS011;54681;52.486;-1.890;2023-01-09T09:04:19;3.92;;;1.40;;
67882;SDS011;54681;52.486;-1.890;2023-01-09T09:06:44;3.72;;;1.40;;
67882;SDS011;54681;52.486;-1.890;2023-01-09T09:09:10;1.85;;;1.10;;
67882;SDS011;54681;52.486;-1.890;2023-01-09T09:11:35;2.67;;;1.35;;
67882;SDS011;54681;52.486;-1.890;2023-01-09T09:14:01;2.08;;;1.23;;
67882;SDS011;54681;52.486;-1.890;2023-01-09T09:16:47;2.78;;;1.30;;
67882;SDS011;54681;52.486;-1.890;2023-01-09T09:19:13;5.00;;;1.40;;
67882;SDS011;54681;52.486;-1.890;2023-01-09T09:21:39;2.80;;;1.25;;
67882;SDS011;54681;52.486;-1.890;2023-01-09T09:24:04;3.13;;;1.10;;
67882;SDS011;54681;52.486;-1.890;2023-01-09T09:26:30;3.40;;;1.20;;
67882;SDS011;54681;52.486;-1.890;2023-01-09T09:28:55;2.97;;;1.17;;
67882;SDS011;54681;52.486;-1.890;2023-01-09T09:31:20;3.30;;;1.13;;
67882;SDS011;54681;52.486;-1.890;2023-01-09T09:33:46;1.65;;;1.00;;
67882;SDS011;54681;52.486;-1.890;2023-01-09T09:36:11;3.03;;;1.30;;
67882;SDS011;54681;52.486;-1.890;2023-01-09T09:38:38;2.88;;;1.27;;
67882;SDS011;54681;52.486;-1.890;2023-01-09T09:47:10;2.17;;;1.10;;
67882;SDS011;54681;52.486;-1.890;2023-01-09T09:49:51;2.72;;;1.25;;
67882;SDS011;54681;52.486;-1.890;2023-01-09T09:52:48;4.70;;;1.40;;
67882;SDS011;54681;52.486;-1.890;2023-01-09T09:55:23;1.85;;;1.10;;
67882;SDS011;54681;52.486;-1.890;2023-01-09T09:57:52;2.92;;;1.15;;
67882;SDS011;54681;52.486;-1.890;2023-01-09T10:00:19;1.95;;;1.20;;
67882;SDS011;54681;52.486;-1.890;2023-01-09T10:02:57;3.30;;;1.30;;
67882;SDS011;54681;52.486;-1.890;2023-01-09T10:05:29;3.47;;;1.38;;
67882;SDS011;54681;52.486;-1.890;2023-01-09T10:08:01;4.35;;;1.35;;
67882;SDS011;54681;52.486;-1.890;2023-01-09T10:10:32;3.00;;;1.50;;
67882;SDS011;54681;52.486;-1.890;2023-01-09T10:13:02;3.17;;;1.40;;
67882;SDS011;54681;52.486;-1.890;2023-01-09T10:15:51;3.30;;;1.38;;
67882;SDS011;54681;52.486;-1.890;2023-01-09T10:21:16;1.23;;;1.10;;
67882;SDS011;54681;52.486;-1.890;2023-01-09T10:23:53;3.80;;;1.40;;
67882;SDS011;54681;52.486;-1.890;2023-01-09T10:26:28;3.65;;;1.20;;
67882;SDS011;54681;52.486;-1.890;2023-01-09T10:35:09;3.37;;;1.30;;
67882;SDS011;54681;52.486;-1.890;2023-01-09T10:37:57;1.38;;;1.20;;
67882;SDS011;54681;52.486;-1.890;2023-01-09T10:40:28;2.27;;;1.17;;
67882;SDS011;54681;52.486;-1.890;2023-01-09T10:43:03;4.35;;;1.38;;
67882;SDS011;54681;52.486;-1.890;2023-01-09T10:48:26;3.42;;;1.30;;
67882;SDS011;54681;52.486;-1.890;2023-01-09T10:51:00;1.52;;;1.17;;
67882;SDS011;54681;52.486;-1.890;2023-01-09T10:53:35;1.63;;;1.27;;
67882;SDS011;54681;52.486;-1.890;2023-01-09T10:56:07;2.30;;;1.27;;
67882;SDS011;54681;52.486;-1.890;2023-01-09T10:58:39;2.22;;;1.30;;
67882;SDS011;54681;52.486;-1.890;2023-01-09T11:01:04;2.65;;;1.40;;
67882;SDS011;54681;52.486;-1.890;2023-01-09T11:03:31;3.47;;;1.23;;
67882;SDS011;54681;52.486;-1.890;2023-01-09T11:05:57;2.63;;;1.30;;
67882;SDS011;54681;52.486;-1.890;2023-01-09T11:08:26;5.70;;;1.60;;
67882;SDS011;54681;52.486;-1.890;2023-01-09T11:10:56;3.28;;;1.20;;
67882;SDS011;54681;52.486;-1.890;2023-01-09T11:13:31;4.00;;;1.33;;
67882;SDS011;54681;52.486;-1.890;2023-01-09T11:18:48;2.67;;;1.23;;
67882;SDS011;54681;52.486;-1.890;2023-01-09T11:21:31;4.65;;;1.40;;
67882;SDS011;54681;52.486;-1.890;2023-01-09T11:26:52;3.72;;;1.50;;
67882;SDS011;54681;52.486;-1.890;2023-01-09T11:29:40;2.10;;;1.30;;
67882;SDS011;54681;52.486;-1.890;2023-01-09T11:32:15;3.00;;;1.40;;
67882;SDS011;54681;52.486;-1.890;2023-01-09T11:34:46;6.68;;;1.75;;
67882;SDS011;54681;52.486;-1.890;2023-01-09T11:37:12;4.07;;;1.30;;
67882;SDS011;54681;52.486;-1.890;2023-01-09T11:39:48;5.47;;;1.60;;
67882;SDS011;54681;52.486;-1.890;2023-01-09T11:42:22;5.45;;;1.60;;
67882;SDS011;54681;52.486;-1.890;2023-01-09T11:45:20;3.65;;;1.45;;
67882;SDS011;54681;52.486;-1.890;2023-01-09T11:47:51;3.47;;;1.40;;
67882;SDS011;54681;52.486;-1.890;2023-01-09T11:50:18;3.42;;;1.52;;
67882;SDS011;54681;52.486;-1.890;2023-01-09T11:52:45;6.75;;;1.52;;
67882;SDS011;54681;52.486;-1.890;2023-01-09T11:55:31;4.07;;;1.67;;
67882;SDS011;54681;52.486;-1.890;2023-01-09T11:57:56;5.43;;;1.70;;
67882;SDS011;54681;52.486;-1.890;2023-01-09T12:00:24;3.75;;;1.50;;
67882;SDS011;54681;52.486;-1.890;2023-01-09T12:05:58;5.13;;;1.60;;
67882;SDS011;54681;52.486;-1.890;2023-01-09T12:08:38;3.75;;;1.52;;
67882;SDS011;54681;52.486;-1.890;2023-01-09T12:14:23;4.40;;;1.50;;
67882;SDS011;54681;52.486;-1.890;2023-01-09T12:19:54;5.80;;;1.70;;
67882;SDS011;54681;52.486;-1.890;2023-01-09T12:22:37;5.85;;;1.65;;
67882;SDS011;54681;52.486;-1.890;2023-01-09T12:25:25;4.68;;;1.73;;
67882;SDS011;54681;52.486;-1.890;2023-01-09T12:30:57;5.57;;;1.70;;
67882;SDS011;54681;52.486;-1.890;2023-01-09T12:33:37;6.03;;;1.77;;
67882;SDS011;54681;52.486;-1.890;2023-01-09T12:36:24;5.90;;;1.70;;
67882;SDS011;54681;52.486;-1.890;2023-01-09T12:39:10;4.35;;;1.65;;
67882;SDS011;54681;52.486;-1.890;2023-01-09T12:41:57;7.70;;;1.90;;
67882;SDS011;54681;52.486;-1.890;2023-01-09T12:44:33;5.97;;;1.80;;
67882;SDS011;54681;52.486;-1.890;2023-01-09T12:47:37;5.05;;;1.80;;
67882;SDS011;54681;52.486;-1.890;2023-01-09T12:50:22;4.38;;;1.90;;
67882;SDS011;54681;52.486;-1.890;2023-01-09T12:53:05;4.78;;;1.60;;
67882;SDS011;54681;52.486;-1.890;2023-01-09T12:55:54;7.28;;;1.90;;
67882;SDS011;54681;52.486;-1.890;2023-01-09T12:58:29;5.28;;;1.73;;
67882;SDS011;54681;52.486;-1.890;2023-01-09T13:01:01;4.90;;;1.80;;
67882;SDS011;54681;52.486;-1.890;2023-01-09T13:03:33;5.32;;;1.73;;
67882;SDS011;54681;52.486;-1.890;2023-01-09T13:06:04;6.43;;;1.67;;
67882;SDS011;54681;52.486;-1.890;2023-01-09T13:08:37;5.65;;;1.63;;
67882;SDS011;54681;52.486;-1.890;2023-01-09T13:13:52;7.47;;;1.60;;
67882;SDS011;54681;52.486;-1.890;2023-01-09T13:16:24;5.50;;;1.60;;
67882;SDS011;54681;52.486;-1.890;2023-01-09T13:18:56;7.03;;;1.80;;
67882;SDS011;54681;52.486;-1.890;2023-01-09T13:21:27;5.47;;;1.90;;
67882;SDS011;54681;52.486;-1.890;2023-01-09T13:23:56;6.90;;;1.90;;
67882;SDS011;54681;52.486;-1.890;2023-01-09T13:26:35;6.87;;;2.10;;
67882;SDS011;54681;52.486;-1.890;2023-01-09T13:29:11;6.18;;;1.80;;
67882;SDS011;54681;52.486;-1.890;2023-01-09T13:34:45;7.55;;;2.08;;
67882;SDS011;54681;52.486;-1.890;2023-01-09T13:37:19;5.53;;;1.70;;
67882;SDS011;54681;52.486;-1.890;2023-01-09T13:39:53;5.03;;;1.83;;
67882;SDS011;54681;52.486;-1.890;2023-01-09T13:42:21;8.23;;;2.15;;
67882;SDS011;54681;52.486;-1.890;2023-01-09T13:47:46;4.20;;;1.60;;
67882;SDS011;54681;52.486;-1.890;2023-01-09T13:50:48;5.93;;;1.70;;
67882;SDS011;54681;52.486;-1.890;2023-01-09T13:56:11;6.65;;;1.83;;
67882;SDS011;54681;52.486;-1.890;2023-01-09T14:07:18;6.63;;;1.77;;
67882;SDS011;54681;52.486;-1.890;2023-01-09T14:09:48;4.90;;;1.80;;
67882;SDS011;54681;52.486;-1.890;2023-01-09T14:12:23;5.03;;;1.55;;
67882;SDS011;54681;52.486;-1.890;2023-01-09T14:14:51;7.00;;;1.80;;
67882;SDS011;54681;52.486;-1.890;2023-01-09T14:19:53;5.45;;;1.92;;
67882;SDS011;54681;52.486;-1.890;2023-01-09T14:22:29;5.63;;;1.60;;
67882;SDS011;54681;52.486;-1.890;2023-01-09T14:25:13;6.38;;;1.60;;
67882;SDS011;54681;52.486;-1.890;2023-01-09T14:28:03;6.90;;;1.80;;
67882;SDS011;54681;52.486;-1.890;2023-01-09T14:30:34;8.25;;;1.90;;
67882;SDS011;54681;52.486;-1.890;2023-01-09T14:33:02;4.07;;;1.70;;
67882;SDS011;54681;52.486;-1.890;2023-01-09T14:35:38;6.90;;;1.60;;
67882;SDS011;54681;52.486;-1.890;2023-01-09T14:38:30;4.95;;;1.63;;
67882;SDS011;54681;52.486;-1.890;2023-01-09T14:40:57;5.17;;;1.80;;
67882;SDS011;54681;52.486;-1.890;2023-01-09T14:43:38;6.18;;;1.90;;
67882;SDS011;54681;52.486;-1.890;2023-01-09T14:46:11;7.30;;;1.70;;
67882;SDS011;54681;52.486;-1.890;2023-01-09T14:48:50;4.28;;;1.67;;
67882;SDS011;54681;52.486;-1.890;2023-01-09T14:51:23;5.68;;;1.70;;
67882;SDS011;54681;52.486;-1.890;2023-01-09T14:53:51;9.07;;;2.03;;
67882;SDS011;54681;52.486;-1.890;2023-01-09T14:56:22;7.45;;;1.75;;
67882;SDS011;54681;52.486;-1.890;2023-01-09T14:59:01;5.28;;;1.80;;
67882;SDS011;54681;52.486;-1.890;2023-01-09T15:01:28;5.97;;;1.70;;
67882;SDS011;54681;52.486;-1.890;2023-01-09T15:03:57;8.67;;;1.80;;
67882;SDS011;54681;52.486;-1.890;2023-01-09T15:06:27;5.97;;;1.75;;
67882;SDS011;54681;52.486;-1.890;2023-01-09T15:09:00;6.33;;;1.77;;
67882;SDS011;54681;52.486;-1.890;2023-01-09T15:11:28;6.93;;;1.77;;
67882;SDS011;54681;52.486;-1.890;2023-01-09T15:13:56;6.85;;;1.77;;
67882;SDS011;54681;52.486;-1.890;2023-01-09T15:16:24;5.47;;;1.83;;
67882;SDS011;54681;52.486;-1.890;2023-01-09T15:18:51;8.63;;;2.08;;
67882;SDS011;54681;52.486;-1.890;2023-01-09T15:21:21;5.65;;;1.80;;
67882;SDS011;54681;52.486;-1.890;2023-01-09T15:23:48;7.77;;;2.00;;
67882;SDS011;54681;52.486;-1.890;2023-01-09T15:26:23;5.53;;;1.80;;
67882;SDS011;54681;52.486;-1.890;2023-01-09T15:28:51;6.28;;;2.00;;
67882;SDS011;54681;52.486;-1.890;2023-01-09T15:31:18;7.43;;;1.90;;
67882;SDS011;54681;52.486;-1.890;2023-01-09T15:33:47;4.43;;;1.73;;
67882;SDS011;54681;52.486;-1.890;2023-01-09T15:36:22;5.20;;;1.70;;
67882;SDS011;54681;52.486;-1.890;2023-01-09T15:38:50;6.50;;;2.00;;
67882;SDS011;54681;52.486;-1.890;2023-01-09T15:41:18;6.72;;;2.00;;
67882;SDS011;54681;52.486;-1.890;2023-01-09T15:43:59;7.00;;;2.08;;
67882;SDS011;54681;52.486;-1.890;2023-01-09T15:46:25;5.82;;;1.70;;
67882;SDS011;54681;52.486;-1.890;2023-01-09T15:48:52;8.20;;;1.80;;
67882;SDS011;54681;52.486;-1.890;2023-01-09T15:51:18;14.65;;;2.50;;
67882;SDS011;54681;52.486;-1.890;2023-01-09T15:53:45;6.85;;;1.83;;
67882;SDS011;54681;52.486;-1.890;2023-01-09T15:56:20;7.65;;;1.63;;
67882;SDS011;54681;52.486;-1.890;2023-01-09T15:58:51;6.63;;;1.85;;
67882;SDS011;54681;52.486;-1.890;2023-01-09T16:01:22;12.27;;;2.17;;
67882;SDS011;54681;52.486;-1.890;2023-01-09T16:06:41;3.60;;;1.55;;
67882;SDS011;54681;52.486;-1.890;2023-01-09T16:09:14;7.63;;;2.10;;
67882;SDS011;54681;52.486;-1.890;2023-01-09T16:11:43;4.95;;;1.90;;
67882;SDS011;54681;52.486;-1.890;2023-01-09T16:17:02;4.65;;;1.77;;
67882;SDS011;54681;52.486;-1.890;2023-01-09T16:19:44;6.45;;;2.15;;